Terminal Aerodrome Forecast
Issued by NWS Jackson, MS

Home | Current Version | Previous Version | Text Only | Print | Product List | Glossary On
Versions: 1 2 3 4 5 6 7 8 9 10 11 12 13 14 15 16 17 18 19 20
000
FTUS44 KMEG 302041 AAA
TAFTUP
TAF AMD
KTUP 302041Z 3021/3118 22012G18KT P6SM VCTS SCT035CB BKN100
      TEMPO 3021/3023 2SM TSRA BKN025CB OVC035
     FM310000 VRB03KT P6SM BKN050
     FM310900 VRB03KT P6SM VCTS BKN025CB OVC035
     FM311400 21007KT P6SM VCTS SCT025 BKN035CB
      TEMPO 3114/3118 3SM TSRA BKN025CB=

USA.gov is the U.S. government's official web portal to all federal, state and local government web resources and services.